Time;durP1;ratioP1;P1;durP2;ratioP2;P2;SDS_P1;SDS_P2;PMS_P1;PMS_P2;Temp;Humidity;BMP_temperature;BMP_pressure;BME280_temperature;BME280_humidity;BME280_pressure;Samples;Min_cycle;Max_cycle;Signal;HPM_P1;HPM_P2
2022/12/12 00:01:01;;;;;;;52.97;34.23;;;;;;;;;;5067535;28;20247;-80
2022/12/12 00:03:27;;;;;;;54.47;34.40;;;;;;;;;;5068462;28;20241;-80
2022/12/12 00:05:54;;;;;;;51.90;33.80;;;;;;;;;;5073506;28;20186;-80
2022/12/12 00:08:20;;;;;;;54.20;33.57;;;;;;;;;;5058847;28;20186;-80
2022/12/12 00:10:46;;;;;;;49.60;32.03;;;;;;;;;;5059545;28;20656;-80
2022/12/12 00:13:12;;;;;;;48.67;32.67;;;;;;;;;;5060502;28;20264;-80
2022/12/12 00:15:38;;;;;;;51.50;32.63;;;;;;;;;;5071088;28;20212;-80
2022/12/12 00:18:04;;;;;;;46.47;31.50;;;;;;;;;;5067224;28;20177;-80
2022/12/12 00:20:30;;;;;;;48.47;32.03;;;;;;;;;;5070910;28;20660;-79
2022/12/12 00:22:56;;;;;;;49.67;31.33;;;;;;;;;;5070137;28;20192;-80
2022/12/12 00:25:22;;;;;;;54.77;34.20;;;;;;;;;;5066254;28;20186;-80
2022/12/12 00:27:48;;;;;;;54.07;33.50;;;;;;;;;;5054601;28;20187;-80
2022/12/12 00:30:14;;;;;;;52.70;32.63;;;;;;;;;;5052216;28;20197;-80
2022/12/12 00:32:40;;;;;;;57.97;33.83;;;;;;;;;;5073360;28;20213;-81
2022/12/12 00:35:06;;;;;;;55.40;34.30;;;;;;;;;;5061474;28;20254;-79
2022/12/12 00:37:32;;;;;;;52.23;32.50;;;;;;;;;;5059641;28;20255;-79
2022/12/12 00:39:58;;;;;;;45.83;31.93;;;;;;;;;;5056257;28;20186;-80
2022/12/12 00:42:26;;;;;;;51.47;31.13;;;;;;;;;;5067672;28;20384;-80
2022/12/12 00:44:52;;;;;;;47.57;30.47;;;;;;;;;;5072715;28;20186;-80
2022/12/12 00:47:18;;;;;;;52.10;30.67;;;;;;;;;;5054313;28;20328;-80
2022/12/12 00:49:44;;;;;;;49.30;30.20;;;;;;;;;;5053657;28;20256;-80
2022/12/12 00:52:10;;;;;;;48.43;30.53;;;;;;;;;;5056961;28;20623;-80
2022/12/12 00:54:36;;;;;;;46.83;29.20;;;;;;;;;;5053546;28;20668;-80
2022/12/12 00:57:02;;;;;;;44.83;30.07;;;;;;;;;;5063317;28;20214;-79
2022/12/12 00:59:28;;;;;;;53.03;31.40;;;;;;;;;;5068668;28;20206;-79
2022/12/12 01:01:54;;;;;;;44.83;27.93;;;;;;;;;;5065820;28;20197;-80
2022/12/12 01:04:20;;;;;;;43.40;28.33;;;;;;;;;;5057210;28;20193;-80
2022/12/12 01:06:46;;;;;;;43.97;27.27;;;;;;;;;;5053955;28;20191;-80
2022/12/12 01:09:12;;;;;;;47.27;29.03;;;;;;;;;;5051727;28;20200;-80
2022/12/12 01:11:38;;;;;;;43.10;29.67;;;;;;;;;;5053045;28;20180;-79
2022/12/12 01:14:04;;;;;;;43.13;29.67;;;;;;;;;;5056603;28;20189;-81
2022/12/12 01:16:30;;;;;;;47.37;31.10;;;;;;;;;;5052666;28;20215;-80
2022/12/12 01:18:56;;;;;;;48.30;30.57;;;;;;;;;;5053248;28;20182;-80
2022/12/12 01:21:23;;;;;;;48.23;32.50;;;;;;;;;;5065434;28;20188;-79
2022/12/12 01:23:49;;;;;;;48.30;31.00;;;;;;;;;;5057222;28;20185;-81
2022/12/12 01:26:20;;;;;;;42.77;28.43;;;;;;;;;;5056602;28;20185;-80
2022/12/12 01:28:46;;;;;;;41.60;28.27;;;;;;;;;;5059015;28;20256;-80
2022/12/12 01:31:13;;;;;;;47.80;30.27;;;;;;;;;;5065816;28;20182;-80
2022/12/12 01:33:44;;;;;;;51.07;31.30;;;;;;;;;;5067197;28;20214;-80
2022/12/12 01:36:15;;;;;;;47.10;29.50;;;;;;;;;;5068178;28;20252;-79
2022/12/12 01:38:41;;;;;;;49.00;31.07;;;;;;;;;;5052901;28;20186;-80
2022/12/12 01:41:07;;;;;;;50.30;30.80;;;;;;;;;;5063376;28;20184;-79
2022/12/12 01:43:33;;;;;;;46.57;29.40;;;;;;;;;;5068337;28;20189;-80
2022/12/12 01:46:01;;;;;;;47.97;29.60;;;;;;;;;;5069538;28;20184;-80
2022/12/12 01:48:29;;;;;;;35.73;25.47;;;;;;;;;;5052975;28;20187;-80
2022/12/12 01:50:57;;;;;;;38.53;26.33;;;;;;;;;;5056404;28;20542;-80
2022/12/12 01:53:24;;;;;;;38.60;25.37;;;;;;;;;;5066781;28;20189;-80
2022/12/12 01:55:50;;;;;;;38.70;26.77;;;;;;;;;;5065204;28;20306;-79
2022/12/12 01:58:16;;;;;;;35.60;25.97;;;;;;;;;;5057599;28;20177;-79
2022/12/12 02:00:42;;;;;;;36.13;24.67;;;;;;;;;;5053439;28;20183;-79
2022/12/12 02:03:09;;;;;;;39.73;24.80;;;;;;;;;;5066666;28;20181;-80
2022/12/12 02:05:38;;;;;;;35.03;23.30;;;;;;;;;;5068706;28;20181;-80
2022/12/12 02:08:05;;;;;;;34.60;24.90;;;;;;;;;;5062516;28;20182;-80
2022/12/12 02:10:31;;;;;;;36.47;23.87;;;;;;;;;;5062340;28;20604;-80
2022/12/12 02:13:03;;;;;;;33.37;22.07;;;;;;;;;;5071649;28;20688;-80
2022/12/12 02:15:32;;;;;;;28.07;20.90;;;;;;;;;;5069324;28;20225;-79
2022/12/12 02:18:07;;;;;;;34.57;23.77;;;;;;;;;;5072361;28;20177;-80
2022/12/12 02:20:36;;;;;;;34.50;23.57;;;;;;;;;;5072687;28;20199;-80
2022/12/12 02:23:02;;;;;;;37.23;24.87;;;;;;;;;;5069865;28;20186;-79
2022/12/12 02:25:46;;;;;;;34.70;24.13;;;;;;;;;;5060326;28;20179;-79
2022/12/12 02:28:26;;;;;;;37.93;24.27;;;;;;;;;;5060710;28;20231;-80
2022/12/12 02:30:58;;;;;;;38.90;25.47;;;;;;;;;;5058702;28;20206;-80
2022/12/12 02:33:33;;;;;;;39.93;24.40;;;;;;;;;;5070178;28;20223;-80
2022/12/12 02:36:14;;;;;;;38.57;23.67;;;;;;;;;;5072712;28;20225;-80
2022/12/12 02:39:01;;;;;;;29.60;21.20;;;;;;;;;;5065729;28;20254;-80
2022/12/12 02:44:52;;;;;;;28.60;19.60;;;;;;;;;;5063609;28;20311;-80
2022/12/12 02:47:20;;;;;;;26.30;18.73;;;;;;;;;;5068887;28;20551;-80
2022/12/12 02:49:52;;;;;;;26.73;18.67;;;;;;;;;;5072536;28;20182;-79
2022/12/12 02:52:19;;;;;;;26.27;17.53;;;;;;;;;;5061477;28;20509;-80
2022/12/12 02:54:45;;;;;;;27.27;18.60;;;;;;;;;;5054476;28;20566;-80
2022/12/12 02:57:15;;;;;;;25.33;18.37;;;;;;;;;;5067535;28;20267;-80
2022/12/12 02:59:43;;;;;;;28.10;18.97;;;;;;;;;;5066321;28;20193;-79
2022/12/12 03:02:28;;;;;;;26.40;17.80;;;;;;;;;;5069716;28;20631;-79
2022/12/12 03:07:48;;;;;;;23.67;16.63;;;;;;;;;;5056183;28;20189;-80
2022/12/12 03:10:32;;;;;;;24.93;16.73;;;;;;;;;;5073361;28;20166;-80
2022/12/12 03:13:11;;;;;;;24.93;17.30;;;;;;;;;;5068884;28;20267;-80
2022/12/12 03:15:52;;;;;;;25.37;17.90;;;;;;;;;;5053730;28;20216;-80
2022/12/12 03:18:21;;;;;;;25.97;17.93;;;;;;;;;;5056645;28;20190;-80
2022/12/12 03:20:59;;;;;;;25.67;18.20;;;;;;;;;;5055531;28;20553;-80
2022/12/12 03:23:27;;;;;;;24.77;17.13;;;;;;;;;;5060728;28;20188;-81
2022/12/12 03:25:53;;;;;;;22.83;17.67;;;;;;;;;;5057208;28;20191;-79
2022/12/12 03:28:24;;;;;;;25.13;17.60;;;;;;;;;;5069739;28;20955;-79
2022/12/12 03:30:51;;;;;;;24.47;16.80;;;;;;;;;;5071872;28;20170;-80
2022/12/12 03:33:27;;;;;;;24.33;17.47;;;;;;;;;;5061763;28;20243;-80
2022/12/12 03:35:59;;;;;;;23.53;15.87;;;;;;;;;;5056535;28;20628;-80
2022/12/12 03:38:29;;;;;;;24.23;16.57;;;;;;;;;;5056331;28;20268;-79
2022/12/12 03:40:57;;;;;;;23.67;16.37;;;;;;;;;;5054891;28;20181;-79
2022/12/12 03:43:25;;;;;;;23.23;16.03;;;;;;;;;;5069179;28;20271;-80
2022/12/12 03:46:09;;;;;;;24.53;15.97;;;;;;;;;;5054811;28;20216;-80
2022/12/12 03:49:07;;;;;;;30.00;17.13;;;;;;;;;;5052412;28;20179;-80
2022/12/12 03:51:38;;;;;;;21.87;16.23;;;;;;;;;;5057976;28;20305;-79
2022/12/12 03:54:04;;;;;;;21.87;15.40;;;;;;;;;;5064162;28;20295;-80
2022/12/12 03:56:34;;;;;;;22.70;16.23;;;;;;;;;;5050241;28;20215;-80
2022/12/12 03:59:06;;;;;;;24.37;16.23;;;;;;;;;;5040941;28;20185;-80
2022/12/12 04:01:39;;;;;;;23.17;15.93;;;;;;;;;;5070508;28;20189;-79
2022/12/12 04:04:10;;;;;;;23.97;16.50;;;;;;;;;;5067723;28;20199;-80
2022/12/12 04:06:38;;;;;;;25.03;15.70;;;;;;;;;;5070051;28;20807;-79
2022/12/12 04:14:47;;;;;;;24.17;16.17;;;;;;;;;;5065434;28;20208;-80
2022/12/12 04:17:15;;;;;;;25.57;17.60;;;;;;;;;;5051966;28;20208;-79
2022/12/12 04:25:33;;;;;;;23.13;16.80;;;;;;;;;;5051875;28;20684;-80
2022/12/12 04:28:01;;;;;;;25.80;16.77;;;;;;;;;;5065948;28;20181;-80
2022/12/12 04:30:28;;;;;;;23.87;16.37;;;;;;;;;;5070235;28;20649;-80
2022/12/12 04:33:14;;;;;;;26.97;17.33;;;;;;;;;;5070976;28;20179;-80
2022/12/12 04:35:43;;;;;;;24.33;16.50;;;;;;;;;;5066477;28;20226;-80
2022/12/12 04:38:13;;;;;;;22.03;15.87;;;;;;;;;;5075920;28;20182;-80
2022/12/12 04:40:41;;;;;;;25.17;17.00;;;;;;;;;;5069966;28;20569;-80
2022/12/12 04:43:09;;;;;;;26.90;17.17;;;;;;;;;;5051958;28;20229;-80
2022/12/12 04:45:37;;;;;;;25.77;16.97;;;;;;;;;;5057851;28;20228;-79
2022/12/12 04:48:05;;;;;;;25.77;17.00;;;;;;;;;;5059562;28;20191;-80
2022/12/12 04:50:32;;;;;;;27.43;17.80;;;;;;;;;;5059585;28;20181;-80
2022/12/12 04:53:00;;;;;;;26.57;18.07;;;;;;;;;;5062811;28;20573;-80
2022/12/12 04:55:28;;;;;;;25.50;18.40;;;;;;;;;;5071406;28;20170;-79
2022/12/12 04:57:55;;;;;;;24.07;17.27;;;;;;;;;;5071311;28;20186;-80
2022/12/12 05:00:22;;;;;;;27.57;18.33;;;;;;;;;;5062549;28;20208;-80
2022/12/12 05:02:51;;;;;;;27.90;19.07;;;;;;;;;;5064787;28;20328;-80
2022/12/12 05:05:21;;;;;;;26.33;18.03;;;;;;;;;;5070538;28;20178;-80
2022/12/12 05:10:51;;;;;;;27.90;19.40;;;;;;;;;;5052974;28;20225;-80
2022/12/12 05:13:19;;;;;;;30.40;19.63;;;;;;;;;;5064996;28;20182;-79
2022/12/12 05:15:46;;;;;;;33.50;21.27;;;;;;;;;;5066464;28;20341;-80
2022/12/12 05:18:27;;;;;;;36.23;23.07;;;;;;;;;;5050431;28;20174;-80
2022/12/12 05:20:53;;;;;;;34.47;21.90;;;;;;;;;;5059327;28;20259;-80
2022/12/12 05:23:19;;;;;;;36.97;23.37;;;;;;;;;;5061640;28;20173;-79
2022/12/12 05:25:45;;;;;;;40.23;25.10;;;;;;;;;;5052946;28;20194;-79
2022/12/12 05:28:11;;;;;;;40.50;26.47;;;;;;;;;;5067394;28;20259;-80
2022/12/12 05:30:37;;;;;;;41.47;26.27;;;;;;;;;;5055244;28;20173;-80
2022/12/12 05:33:04;;;;;;;43.97;28.03;;;;;;;;;;5062479;28;20195;-80
2022/12/12 05:35:30;;;;;;;42.77;28.10;;;;;;;;;;5057103;28;20214;-79
2022/12/12 05:37:56;;;;;;;41.50;28.17;;;;;;;;;;5076437;28;20181;-80
2022/12/12 05:40:22;;;;;;;44.93;28.70;;;;;;;;;;5067686;28;20176;-80
2022/12/12 05:42:48;;;;;;;46.93;30.20;;;;;;;;;;5056498;28;20211;-80
2022/12/12 05:45:14;;;;;;;45.60;28.47;;;;;;;;;;5066481;28;20183;-80
2022/12/12 05:47:40;;;;;;;43.00;28.80;;;;;;;;;;5069756;28;20192;-79
2022/12/12 05:50:07;;;;;;;45.87;29.83;;;;;;;;;;5066708;28;20204;-80
2022/12/12 05:52:33;;;;;;;43.20;29.00;;;;;;;;;;5068897;28;20231;-81
2022/12/12 05:54:59;;;;;;;43.33;28.80;;;;;;;;;;5051824;28;20231;-80
2022/12/12 05:57:25;;;;;;;43.47;28.40;;;;;;;;;;5056486;28;20220;-79
2022/12/12 05:59:51;;;;;;;41.00;27.47;;;;;;;;;;5061435;28;20538;-79
2022/12/12 06:02:17;;;;;;;46.10;28.70;;;;;;;;;;5065633;28;20180;-80
2022/12/12 06:04:43;;;;;;;42.67;28.30;;;;;;;;;;5068679;28;20186;-80
2022/12/12 06:07:09;;;;;;;46.07;29.93;;;;;;;;;;5051605;28;20258;-79
2022/12/12 06:09:35;;;;;;;47.40;30.40;;;;;;;;;;5057223;28;20573;-79
2022/12/12 06:12:01;;;;;;;43.67;28.87;;;;;;;;;;5056799;28;20655;-79
2022/12/12 06:14:27;;;;;;;44.17;28.63;;;;;;;;;;5059588;28;20245;-80
2022/12/12 06:16:53;;;;;;;46.27;29.77;;;;;;;;;;5067459;28;20238;-79
2022/12/12 06:19:20;;;;;;;47.43;28.43;;;;;;;;;;5052038;28;20189;-80
2022/12/12 06:21:46;;;;;;;47.67;30.63;;;;;;;;;;5057211;28;20187;-79
2022/12/12 06:24:12;;;;;;;44.87;29.80;;;;;;;;;;5058129;28;20195;-79
2022/12/12 06:26:39;;;;;;;40.77;28.10;;;;;;;;;;5058074;28;20588;-79
2022/12/12 06:29:05;;;;;;;40.90;28.23;;;;;;;;;;5055168;28;20190;-79
2022/12/12 06:31:31;;;;;;;43.17;27.87;;;;;;;;;;5061968;28;20177;-81
2022/12/12 06:33:57;;;;;;;47.30;28.97;;;;;;;;;;5055840;28;20671;-81
2022/12/12 06:36:24;;;;;;;45.17;29.20;;;;;;;;;;5067366;28;20206;-80
2022/12/12 06:38:51;;;;;;;42.57;27.83;;;;;;;;;;5063979;28;20651;-80
2022/12/12 06:41:17;;;;;;;45.23;30.33;;;;;;;;;;5067940;28;20277;-81
2022/12/12 06:43:43;;;;;;;42.77;28.43;;;;;;;;;;5051395;28;20650;-80
2022/12/12 06:46:13;;;;;;;45.13;27.70;;;;;;;;;;5069998;28;20208;-80
2022/12/12 06:48:39;;;;;;;44.50;28.53;;;;;;;;;;5065803;28;20184;-80
2022/12/12 06:51:06;;;;;;;42.83;28.70;;;;;;;;;;5060265;28;20182;-80
2022/12/12 06:53:32;;;;;;;39.87;27.83;;;;;;;;;;5068060;28;20262;-80
2022/12/12 06:55:58;;;;;;;40.00;28.47;;;;;;;;;;5056207;28;20295;-80
2022/12/12 06:58:24;;;;;;;42.73;29.00;;;;;;;;;;5057455;28;20314;-79
2022/12/12 07:00:53;;;;;;;42.07;29.30;;;;;;;;;;5060846;28;20602;-80
2022/12/12 07:03:19;;;;;;;45.00;29.07;;;;;;;;;;5058338;28;20643;-80
2022/12/12 07:05:46;;;;;;;44.33;28.50;;;;;;;;;;5058135;28;20946;-80
2022/12/12 07:08:12;;;;;;;41.70;27.63;;;;;;;;;;5058175;28;20303;-80
2022/12/12 07:10:38;;;;;;;45.27;29.67;;;;;;;;;;5071210;28;20186;-80
2022/12/12 07:13:04;;;;;;;43.87;28.90;;;;;;;;;;5055998;28;20182;-80
2022/12/12 07:15:30;;;;;;;43.07;29.17;;;;;;;;;;5070583;28;20659;-80
2022/12/12 07:17:56;;;;;;;38.47;28.03;;;;;;;;;;5067445;28;20187;-81
2022/12/12 07:20:22;;;;;;;44.47;28.90;;;;;;;;;;5067931;28;20192;-80
2022/12/12 07:22:48;;;;;;;43.83;28.03;;;;;;;;;;5060610;28;20183;-80
2022/12/12 07:25:15;;;;;;;42.87;28.90;;;;;;;;;;5072308;28;20567;-80
2022/12/12 07:27:41;;;;;;;39.17;26.93;;;;;;;;;;5060694;28;20235;-79
2022/12/12 07:30:07;;;;;;;39.60;28.57;;;;;;;;;;5059982;28;20176;-79
2022/12/12 07:32:33;;;;;;;37.67;26.97;;;;;;;;;;5068915;28;20194;-79
2022/12/12 07:34:59;;;;;;;40.93;28.33;;;;;;;;;;5057627;28;20215;-79
2022/12/12 07:37:26;;;;;;;40.03;28.53;;;;;;;;;;5083324;28;20199;-79
2022/12/12 07:39:52;;;;;;;40.00;27.50;;;;;;;;;;5060121;28;20182;-79
2022/12/12 07:42:18;;;;;;;38.07;27.47;;;;;;;;;;5057595;28;20189;-79
2022/12/12 07:44:44;;;;;;;41.53;27.40;;;;;;;;;;5060531;28;20636;-79
2022/12/12 07:47:10;;;;;;;38.23;26.67;;;;;;;;;;5057406;28;20196;-79
2022/12/12 07:49:36;;;;;;;35.20;25.90;;;;;;;;;;5055645;28;20538;-79
2022/12/12 07:52:02;;;;;;;35.67;25.23;;;;;;;;;;5070675;28;20204;-79
2022/12/12 07:54:28;;;;;;;39.67;28.17;;;;;;;;;;5057996;28;20662;-79
2022/12/12 07:56:54;;;;;;;40.67;27.77;;;;;;;;;;5060060;28;20205;-79
2022/12/12 07:59:20;;;;;;;32.97;25.00;;;;;;;;;;5070011;28;20523;-79
2022/12/12 08:01:46;;;;;;;34.27;25.87;;;;;;;;;;5056111;28;20198;-79
2022/12/12 08:04:12;;;;;;;39.63;25.87;;;;;;;;;;5052504;28;20184;-79
2022/12/12 08:06:38;;;;;;;37.20;25.30;;;;;;;;;;5057967;28;20197;-79
2022/12/12 08:09:04;;;;;;;39.20;26.30;;;;;;;;;;5065752;28;20523;-79
2022/12/12 08:11:30;;;;;;;33.47;24.90;;;;;;;;;;5068655;28;20601;-79
2022/12/12 08:13:56;;;;;;;36.03;25.03;;;;;;;;;;5070179;28;20177;-79
2022/12/12 08:16:24;;;;;;;32.30;23.50;;;;;;;;;;5052833;28;20207;-79
2022/12/12 08:18:52;;;;;;;35.57;25.47;;;;;;;;;;5058391;28;20225;-80
2022/12/12 08:21:19;;;;;;;33.87;26.77;;;;;;;;;;5058209;28;20190;-77
2022/12/12 08:23:45;;;;;;;37.10;27.53;;;;;;;;;;5058301;28;20216;-78
2022/12/12 08:26:12;;;;;;;47.40;30.43;;;;;;;;;;5056672;28;20196;-77
2022/12/12 08:28:40;;;;;;;44.83;31.93;;;;;;;;;;5055281;28;20656;-79
2022/12/12 08:31:06;;;;;;;42.27;29.63;;;;;;;;;;5062216;28;20212;-78
2022/12/12 08:33:32;;;;;;;43.70;30.90;;;;;;;;;;5059772;28;20664;-79
2022/12/12 08:35:58;;;;;;;35.97;27.63;;;;;;;;;;5056960;28;20228;-78
2022/12/12 08:38:24;;;;;;;38.40;27.03;;;;;;;;;;5078745;28;20191;-78
2022/12/12 08:40:50;;;;;;;31.77;24.10;;;;;;;;;;5054017;28;20185;-78
2022/12/12 08:43:16;;;;;;;33.50;22.83;;;;;;;;;;5056980;28;20266;-78
2022/12/12 08:45:42;;;;;;;35.03;23.27;;;;;;;;;;5054155;28;20275;-78
2022/12/12 08:48:11;;;;;;;32.30;22.03;;;;;;;;;;5061212;28;20588;-78
2022/12/12 08:50:40;;;;;;;33.47;24.40;;;;;;;;;;5068234;28;20184;-78
2022/12/12 08:53:06;;;;;;;28.83;21.10;;;;;;;;;;5063449;28;20711;-78
2022/12/12 08:55:32;;;;;;;36.13;23.13;;;;;;;;;;5067612;28;20265;-78
2022/12/12 08:57:58;;;;;;;35.30;21.17;;;;;;;;;;5057541;28;20192;-78
2022/12/12 09:00:24;;;;;;;26.53;19.23;;;;;;;;;;5057513;28;20185;-78
2022/12/12 09:02:50;;;;;;;28.60;20.07;;;;;;;;;;5061866;28;20179;-78
2022/12/12 09:05:16;;;;;;;38.57;25.47;;;;;;;;;;5070617;28;20236;-78
2022/12/12 09:07:42;;;;;;;45.70;31.43;;;;;;;;;;5068112;28;20211;-78
2022/12/12 09:10:08;;;;;;;44.47;29.70;;;;;;;;;;5073898;28;20577;-78
2022/12/12 09:12:34;;;;;;;45.37;29.50;;;;;;;;;;5056269;28;20207;-78
2022/12/12 09:15:01;;;;;;;31.13;22.83;;;;;;;;;;5054352;28;20242;-79
2022/12/12 09:17:27;;;;;;;31.33;23.90;;;;;;;;;;5057812;28;20209;-78
2022/12/12 09:19:53;;;;;;;25.87;17.70;;;;;;;;;;5070935;28;20658;-78
2022/12/12 09:22:19;;;;;;;26.63;18.07;;;;;;;;;;5059439;28;20175;-79
2022/12/12 09:24:45;;;;;;;27.10;17.93;;;;;;;;;;5058105;28;20627;-78
2022/12/12 09:27:11;;;;;;;27.37;17.70;;;;;;;;;;5066531;28;20191;-78
2022/12/12 09:29:37;;;;;;;26.40;18.23;;;;;;;;;;5064451;28;20186;-78
2022/12/12 09:32:05;;;;;;;21.57;15.77;;;;;;;;;;5065290;28;20178;-78
2022/12/12 09:34:32;;;;;;;27.83;17.27;;;;;;;;;;5069502;28;20242;-79
2022/12/12 09:36:59;;;;;;;22.37;16.83;;;;;;;;;;5067854;28;20706;-79
2022/12/12 09:39:26;;;;;;;28.37;17.00;;;;;;;;;;5065184;28;20233;-78
2022/12/12 09:41:53;;;;;;;24.47;16.50;;;;;;;;;;5057215;28;20677;-78
2022/12/12 09:44:21;;;;;;;23.77;15.73;;;;;;;;;;5054474;28;20173;-79
2022/12/12 09:46:54;;;;;;;27.10;17.43;;;;;;;;;;5066976;28;20185;-78
2022/12/12 09:49:24;;;;;;;21.97;14.97;;;;;;;;;;5051054;28;20179;-79
2022/12/12 09:51:51;;;;;;;22.60;14.83;;;;;;;;;;5064446;28;20192;-78
2022/12/12 09:54:23;;;;;;;23.80;15.17;;;;;;;;;;5062869;28;20181;-78
2022/12/12 09:57:08;;;;;;;23.70;17.17;;;;;;;;;;5056984;28;20282;-78
2022/12/12 09:59:38;;;;;;;22.60;15.47;;;;;;;;;;5054319;28;20684;-78
2022/12/12 10:02:21;;;;;;;23.17;14.90;;;;;;;;;;5054674;28;20184;-78
2022/12/12 10:05:00;;;;;;;25.93;17.77;;;;;;;;;;5054534;28;20192;-78
2022/12/12 10:07:30;;;;;;;32.07;19.23;;;;;;;;;;5068317;28;20178;-78
2022/12/12 10:10:03;;;;;;;25.60;18.10;;;;;;;;;;5056710;28;20187;-79
2022/12/12 10:12:29;;;;;;;40.00;26.27;;;;;;;;;;5063812;28;20190;-78
2022/12/12 10:15:01;;;;;;;43.57;27.17;;;;;;;;;;5065454;28;20184;-79
2022/12/12 10:17:41;;;;;;;34.53;20.67;;;;;;;;;;5059156;28;20238;-79
2022/12/12 10:20:14;;;;;;;23.17;15.17;;;;;;;;;;5052282;28;20330;-79
2022/12/12 10:22:45;;;;;;;26.37;16.50;;;;;;;;;;5067585;28;20228;-78
2022/12/12 10:25:14;;;;;;;21.77;14.93;;;;;;;;;;5063318;28;20177;-79
2022/12/12 10:27:40;;;;;;;23.20;14.80;;;;;;;;;;5054595;28;20178;-79
2022/12/12 10:30:14;;;;;;;24.30;14.83;;;;;;;;;;5063283;28;20214;-78
2022/12/12 10:32:43;;;;;;;22.60;14.17;;;;;;;;;;5069914;28;20188;-79
2022/12/12 10:35:15;;;;;;;17.93;13.53;;;;;;;;;;5058523;28;20218;-78
2022/12/12 10:37:47;;;;;;;20.27;13.07;;;;;;;;;;5085495;28;20203;-79
2022/12/12 10:40:16;;;;;;;19.40;13.10;;;;;;;;;;5071991;28;20184;-79
2022/12/12 10:42:51;;;;;;;19.00;12.67;;;;;;;;;;5072703;28;20195;-78
2022/12/12 10:45:32;;;;;;;20.00;12.50;;;;;;;;;;5065314;28;20217;-79
2022/12/12 10:47:58;;;;;;;18.23;12.97;;;;;;;;;;5064428;28;20551;-78
2022/12/12 10:50:38;;;;;;;17.80;12.67;;;;;;;;;;5059839;28;20658;-78
2022/12/12 10:53:06;;;;;;;20.87;13.40;;;;;;;;;;5064228;28;20228;-79
2022/12/12 10:55:50;;;;;;;21.23;13.93;;;;;;;;;;5058053;28;20218;-78
2022/12/12 10:58:17;;;;;;;18.80;11.17;;;;;;;;;;5072182;28;20275;-78
2022/12/12 11:00:44;;;;;;;21.20;12.77;;;;;;;;;;5072243;28;20591;-79
2022/12/12 11:03:28;;;;;;;18.73;12.40;;;;;;;;;;5065917;28;20178;-78
2022/12/12 11:05:55;;;;;;;21.50;13.03;;;;;;;;;;5060979;28;20215;-78
2022/12/12 11:08:28;;;;;;;17.03;11.07;;;;;;;;;;5055649;28;20173;-79
2022/12/12 11:11:24;;;;;;;21.67;13.83;;;;;;;;;;5086537;28;20677;-79
2022/12/12 11:13:50;;;;;;;48.13;27.83;;;;;;;;;;5062336;28;20267;-78
2022/12/12 11:16:24;;;;;;;34.63;20.60;;;;;;;;;;5059511;28;20287;-79
2022/12/12 11:19:10;;;;;;;29.07;17.60;;;;;;;;;;5070232;28;20691;-79
2022/12/12 11:21:38;;;;;;;17.87;12.83;;;;;;;;;;5069203;28;20277;-79
2022/12/12 11:24:15;;;;;;;17.53;11.83;;;;;;;;;;5072356;28;20644;-79
2022/12/12 11:26:52;;;;;;;20.77;13.00;;;;;;;;;;5067210;28;20273;-78
2022/12/12 11:29:26;;;;;;;16.53;11.93;;;;;;;;;;5057170;28;20250;-78
2022/12/12 11:31:53;;;;;;;20.87;12.97;;;;;;;;;;5068725;28;20176;-78
2022/12/12 11:34:20;;;;;;;25.43;12.93;;;;;;;;;;5055717;28;20241;-78
2022/12/12 11:36:46;;;;;;;17.50;12.33;;;;;;;;;;5076582;28;20593;-79
2022/12/12 11:39:30;;;;;;;20.87;12.93;;;;;;;;;;5073106;28;20235;-78
2022/12/12 11:42:01;;;;;;;19.07;13.57;;;;;;;;;;5059376;28;20224;-79
2022/12/12 11:44:31;;;;;;;20.30;13.20;;;;;;;;;;5056063;28;20534;-78
2022/12/12 11:47:14;;;;;;;16.17;11.73;;;;;;;;;;5056176;28;20667;-79
2022/12/12 11:49:46;;;;;;;23.57;14.80;;;;;;;;;;5068377;28;20645;-78
2022/12/12 11:52:31;;;;;;;19.07;13.33;;;;;;;;;;5061465;28;20188;-79
2022/12/12 11:54:58;;;;;;;24.13;13.87;;;;;;;;;;5060290;28;20228;-79
2022/12/12 11:57:30;;;;;;;17.70;12.93;;;;;;;;;;5060928;28;20255;-78
2022/12/12 12:00:05;;;;;;;18.40;13.30;;;;;;;;;;5070444;28;20272;-79
2022/12/12 12:02:48;;;;;;;23.50;13.73;;;;;;;;;;5067848;28;20596;-78
2022/12/12 12:05:17;;;;;;;22.60;15.17;;;;;;;;;;5056461;28;20218;-78
2022/12/12 12:07:43;;;;;;;21.57;14.30;;;;;;;;;;5057726;28;20603;-79
2022/12/12 12:10:12;;;;;;;20.10;13.10;;;;;;;;;;5058695;28;20235;-78
2022/12/12 12:12:51;;;;;;;19.93;13.13;;;;;;;;;;5068442;28;20235;-79
2022/12/12 12:15:21;;;;;;;22.73;14.00;;;;;;;;;;5067927;28;20209;-78
2022/12/12 12:17:47;;;;;;;20.83;14.40;;;;;;;;;;5060166;28;20213;-78
2022/12/12 12:20:16;;;;;;;19.60;13.90;;;;;;;;;;5055330;28;20166;-78
2022/12/12 12:22:53;;;;;;;16.53;12.30;;;;;;;;;;5068576;28;20216;-78
2022/12/12 12:25:38;;;;;;;22.90;15.67;;;;;;;;;;5052828;28;20242;-78
2022/12/12 12:28:15;;;;;;;18.43;14.27;;;;;;;;;;5055454;28;20181;-78
2022/12/12 12:30:41;;;;;;;21.70;15.43;;;;;;;;;;5060370;28;20177;-78
2022/12/12 12:33:16;;;;;;;26.70;18.17;;;;;;;;;;5059557;28;20186;-79
2022/12/12 12:36:06;;;;;;;25.03;18.47;;;;;;;;;;5054952;28;20217;-78
2022/12/12 12:38:46;;;;;;;37.67;22.27;;;;;;;;;;5057355;28;20189;-78
2022/12/12 12:41:21;;;;;;;30.87;17.93;;;;;;;;;;5068388;28;20553;-78
2022/12/12 12:43:47;;;;;;;44.87;26.63;;;;;;;;;;5065845;28;20169;-78
2022/12/12 12:46:28;;;;;;;23.27;17.13;;;;;;;;;;5064150;28;20663;-78
2022/12/12 12:48:58;;;;;;;21.43;15.57;;;;;;;;;;5059999;28;20241;-78
2022/12/12 12:51:28;;;;;;;27.00;16.53;;;;;;;;;;5069435;28;20672;-79
2022/12/12 12:54:13;;;;;;;28.83;19.13;;;;;;;;;;5056628;28;20184;-78
2022/12/12 12:56:49;;;;;;;26.93;16.70;;;;;;;;;;5069176;28;20215;-78
2022/12/12 12:59:17;;;;;;;46.73;25.07;;;;;;;;;;5054272;28;20193;-78
2022/12/12 13:01:45;;;;;;;48.37;25.43;;;;;;;;;;5067767;28;20209;-78
2022/12/12 13:04:16;;;;;;;28.80;17.83;;;;;;;;;;5071218;28;20257;-79
2022/12/12 13:06:57;;;;;;;20.57;13.83;;;;;;;;;;5062461;28;20189;-79
2022/12/12 13:09:29;;;;;;;22.63;15.43;;;;;;;;;;5053856;28;20209;-79
2022/12/12 13:12:11;;;;;;;23.07;14.53;;;;;;;;;;5060915;28;20181;-79
2022/12/12 13:14:40;;;;;;;36.23;23.57;;;;;;;;;;5066427;28;20181;-78
2022/12/12 13:17:11;;;;;;;31.70;18.97;;;;;;;;;;5067964;28;20213;-78
2022/12/12 13:19:39;;;;;;;27.13;18.83;;;;;;;;;;5067784;28;20259;-79
2022/12/12 13:22:13;;;;;;;26.50;19.47;;;;;;;;;;5058031;28;20692;-78
2022/12/12 13:24:50;;;;;;;26.17;17.80;;;;;;;;;;5058672;28;20605;-78
2022/12/12 13:27:17;;;;;;;22.27;15.33;;;;;;;;;;5061461;28;20216;-79
2022/12/12 13:30:01;;;;;;;23.13;16.07;;;;;;;;;;5058923;28;20217;-79
2022/12/12 13:32:43;;;;;;;22.03;15.97;;;;;;;;;;5069773;28;20173;-78
2022/12/12 13:35:10;;;;;;;26.17;16.90;;;;;;;;;;5051519;28;20228;-78
2022/12/12 13:37:43;;;;;;;24.63;18.20;;;;;;;;;;5084861;28;20207;-78
2022/12/12 13:40:20;;;;;;;24.33;16.50;;;;;;;;;;5059763;28;20185;-78
2022/12/12 13:42:55;;;;;;;25.43;17.80;;;;;;;;;;5053436;28;20286;-79
2022/12/12 13:45:41;;;;;;;25.67;17.83;;;;;;;;;;5057903;28;20636;-79
2022/12/12 13:48:26;;;;;;;25.27;18.13;;;;;;;;;;5052954;28;20538;-79
2022/12/12 13:51:10;;;;;;;21.07;17.00;;;;;;;;;;5054470;28;20264;-79
2022/12/12 13:53:36;;;;;;;24.83;17.10;;;;;;;;;;5069577;28;20184;-79
2022/12/12 13:56:21;;;;;;;21.40;15.90;;;;;;;;;;5054298;28;20196;-79
2022/12/12 13:58:47;;;;;;;25.23;17.93;;;;;;;;;;5067595;28;20181;-80
2022/12/12 14:04:32;;;;;;;20.17;16.00;;;;;;;;;;5039235;28;20196;-79
2022/12/12 14:07:15;;;;;;;25.17;16.07;;;;;;;;;;5054041;28;20242;-79
2022/12/12 14:09:46;;;;;;;22.53;15.50;;;;;;;;;;5054999;28;20188;-79
2022/12/12 14:12:17;;;;;;;22.40;15.10;;;;;;;;;;5056332;28;20188;-79
2022/12/12 14:14:51;;;;;;;20.97;14.67;;;;;;;;;;5054653;28;20192;-79
2022/12/12 14:17:21;;;;;;;23.33;15.63;;;;;;;;;;5066726;28;20764;-79
2022/12/12 14:19:49;;;;;;;29.53;17.63;;;;;;;;;;5066107;28;20189;-80
2022/12/12 14:22:45;;;;;;;22.77;16.50;;;;;;;;;;5057364;28;20178;-80
2022/12/12 14:25:11;;;;;;;20.10;14.70;;;;;;;;;;5042153;28;20216;-79
2022/12/12 14:28:00;;;;;;;23.23;15.17;;;;;;;;;;5048105;28;20193;-79
2022/12/12 14:30:35;;;;;;;20.83;14.70;;;;;;;;;;5026565;28;20197;-79
2022/12/12 14:33:16;;;;;;;19.73;14.83;;;;;;;;;;5045668;28;20223;-80
2022/12/12 14:36:01;;;;;;;24.03;16.10;;;;;;;;;;5045722;28;20736;-80
2022/12/12 14:38:45;;;;;;;20.30;15.23;;;;;;;;;;5032892;28;20277;-79
2022/12/12 14:41:15;;;;;;;18.47;15.03;;;;;;;;;;5031429;28;20193;-79
2022/12/12 14:43:44;;;;;;;24.50;14.77;;;;;;;;;;5043643;28;20185;-80
2022/12/12 14:46:17;;;;;;;19.53;13.83;;;;;;;;;;5025047;28;20667;-79
2022/12/12 14:48:43;;;;;;;18.73;14.73;;;;;;;;;;5023876;28;20209;-79
2022/12/12 14:51:41;;;;;;;22.57;13.90;;;;;;;;;;5021770;28;20268;-79
2022/12/12 14:54:18;;;;;;;18.70;14.03;;;;;;;;;;4995161;28;20220;-79
2022/12/12 14:56:46;;;;;;;22.03;15.80;;;;;;;;;;4988858;28;20216;-78